METAR Data
IDs: Format: Raw Decoded Include TAF

Data at: 0112 UTC 06 Dec 2019

KUCY 060055Z AUTO 14006KT 10SM SCT090 BKN110 13/02 A3004 RMK A01
KUCY 060035Z AUTO 16007KT 10SM FEW085 BKN110 13/02 A3005 RMK A01
KUCY 060015Z AUTO 18006KT 10SM FEW050 BKN075 OVC090 13/02 A3005 RMK A01
KUCY 052355Z AUTO 18006KT 10SM BKN075 BKN095 OVC110 13/02 A3005 RMK A01
KUCY 052335Z AUTO 17005KT 10SM BKN110 13/02 A3004 RMK A01
KUCY 052315Z AUTO 17006KT 10SM SCT120 13/03 A3004 RMK A01
KUCY 052255Z AUTO 19007KT 10SM BKN120 13/03 A3004 RMK A01
KUCY 052230Z AUTO 18006KT 10SM OVC120 14/03 A3004 RMK A01
KUCY 052215Z AUTO 17005KT 10SM BKN120 14/04 A3004 RMK A01
KUCY 052155Z AUTO 18006KT 10SM CLR 14/04 A3004 RMK A01
KUCY 052135Z AUTO 19004KT 10SM CLR 15/04 A3004 RMK A01
KUCY 052115Z AUTO 20003KT 10SM CLR 16/03 A3004 RMK A01
KUCY 052055Z AUTO 19005KT 10SM FEW110 16/02 A3004 RMK A01
KUCY 052035Z AUTO 20006KT 10SM BKN110 16/02 A3004 RMK A01
KUCY 052015Z AUTO 21007KT 10SM FEW120 16/01 A3004 RMK A01
KUCY 051955Z AUTO 18007KT 10SM CLR 17/02 A3003 RMK A01
KUCY 051935Z AUTO 18009KT 10SM FEW120 17/02 A3004 RMK A01
KUCY 051915Z AUTO 19008KT 170V240 10SM SCT120 17/01 A3004 RMK A01
KUCY 051855Z AUTO 18010KT 10SM FEW120 17/01 A3004 RMK A01
KUCY 051835Z AUTO 20009KT 10SM CLR 17/01 A3005 RMK A01
KUCY 051815Z AUTO 17010KT 10SM CLR 17/02 A3006 RMK A01
KUCY 051755Z AUTO 20010KT 10SM CLR 17/02 A3007 RMK A01
KUCY 051735Z AUTO 18008KT 10SM CLR 15/02 A3009 RMK A01
KUCY 051715Z AUTO 18008KT 10SM CLR 15/02 A3010 RMK A01
KUCY 051655Z AUTO 18009KT 10SM CLR 14/02 A3010 RMK A01
KUCY 051615Z AUTO 16009KT 10SM CLR 12/02 A3011 RMK A01
KUCY 051555Z AUTO 15008KT 10SM CLR 11/03 A3011 RMK A01
KUCY 051535Z AUTO 16006KT 10SM CLR 10/04 A3012 RMK A01
KUCY 051515Z AUTO 00000KT 10SM CLR 08/03 A3011 RMK A01
KUCY 051455Z AUTO 00000KT 10SM CLR 06/03 A3011 RMK A01
KUCY 051435Z AUTO 00000KT 10SM CLR 05/03 A3011 RMK A01
KUCY 051415Z AUTO 00000KT 10SM CLR 03/01 A3010 RMK A01
KUCY 051355Z AUTO 00000KT 10SM CLR 02/01 A3010 RMK A01
KUCY 051335Z AUTO 00000KT 10SM CLR 02/01 A3010 RMK A01
KUCY 051315Z AUTO 10003KT 10SM CLR 01/00 A3009 RMK A01
KUCY 051255Z AUTO 00000KT 10SM CLR 01/00 A3009 RMK A01
KUCY 051235Z AUTO 00000KT 10SM CLR 01/00 A3009 RMK A01
KUCY 051215Z AUTO 00000KT 10SM CLR 01/00 A3008 RMK A01
KUCY 051155Z AUTO 00000KT 10SM CLR 01/00 A3008 RMK A01
KUCY 051135Z AUTO 00000KT 10SM CLR 01/M00 A3007 RMK A01
KUCY 051115Z AUTO 00000KT 10SM CLR 00/M00 A3006 RMK A01
KUCY 051055Z AUTO 00000KT 10SM CLR 01/M00 A3006 RMK A01
KUCY 051035Z AUTO 00000KT 10SM CLR 01/00 A3005 RMK A01
KUCY 051015Z AUTO 00000KT 10SM CLR 01/00 A3005 RMK A01
KUCY 050955Z AUTO 00000KT 10SM CLR 01/M00 A3005 RMK A01
KUCY 050935Z AUTO 00000KT 10SM CLR 01/M00 A3005 RMK A01
KUCY 050915Z AUTO 00000KT 10SM CLR M01/M02 A3005 RMK A01
KUCY 050855Z AUTO 00000KT 10SM CLR M00/M01 A3004 RMK A01
KUCY 050835Z AUTO 00000KT 10SM CLR 00/M01 A3004 RMK A01
KUCY 050810Z AUTO 00000KT 10SM CLR M01/M02 A3003 RMK A01
KUCY 050755Z AUTO 00000KT 10SM CLR 01/M00 A3003 RMK A01
KUCY 050735Z AUTO 00000KT 10SM CLR 03/01 A3003 RMK A01
KUCY 050715Z AUTO 00000KT 10SM CLR 01/M00 A3003 RMK A01
KUCY 050655Z AUTO 21003KT 10SM CLR 01/M00 A3002 RMK A01
KUCY 050615Z AUTO 00000KT 10SM CLR 02/00 A3001 RMK A01
KUCY 050555Z AUTO 00000KT 10SM CLR 02/00 A3001 RMK A01
KUCY 050535Z AUTO 00000KT 10SM CLR 02/M00 A3001 RMK A01
KUCY 050515Z AUTO 00000KT 10SM CLR 02/M00 A3001 RMK A01
KUCY 050455Z AUTO 00000KT 10SM CLR 05/01 A3001 RMK A01
KUCY 050435Z AUTO 00000KT 10SM CLR 06/01 A3001 RMK A01
KUCY 050415Z AUTO 22003KT 10SM CLR 05/01 A3001 RMK A01
KUCY 050355Z AUTO 23005KT 10SM CLR 06/01 A3001 RMK A01
KUCY 050335Z AUTO 22004KT 10SM CLR 06/01 A3000 RMK A01
KUCY 050315Z AUTO 21003KT 10SM CLR 05/01 A3000 RMK A01
KUCY 050255Z AUTO 21003KT 10SM CLR 06/01 A2999 RMK A01
KUCY 050235Z AUTO 21003KT 10SM CLR 06/01 A2999 RMK A01
KUCY 050210Z AUTO 00000KT 10SM CLR 08/01 A2999 RMK A01
KUCY 050155Z AUTO 00000KT 10SM CLR 06/01 A2999 RMK A01
KUCY 050135Z AUTO 22004KT 10SM CLR 08/01 A2999 RMK A01
KUCY 050110Z AUTO 00000KT 10SM CLR 07/01 A2998 RMK A01
KUCY 050055Z AUTO 00000KT 10SM CLR 07/02 A2997 RMK A01
KUCY 050035Z AUTO 21003KT 10SM CLR 07/01 A2997 RMK A01
KUCY 050015Z AUTO 21004KT 10SM CLR 08/01 A2997 RMK A01
KUCY 042350Z AUTO 24005KT 10SM CLR 09/01 A2997 RMK A01
KUCY 042335Z AUTO 23005KT 10SM CLR 09/01 A2997 RMK A01
KUCY 042315Z AUTO 21004KT 10SM CLR 08/01 A2997 RMK A01
KUCY 042255Z AUTO 00000KT 10SM CLR 10/01 A2996 RMK A01
KUCY 042235Z AUTO 00000KT 10SM CLR 10/01 A2996 RMK A01
KUCY 042210Z AUTO 28004KT 10SM CLR 11/01 A2996 RMK A01
KUCY 042155Z AUTO 29004G10KT 10SM CLR 12/01 A2996 RMK A01
KUCY 042135Z AUTO 28007KT 10SM CLR 13/01 A2996 RMK A01
KUCY 042115Z AUTO 28007KT 10SM CLR 14/00 A2995 RMK A01
KUCY 042055Z AUTO 29004KT 10SM CLR 13/M01 A2994 RMK A01
KUCY 042035Z AUTO 27008KT 10SM CLR 15/M02 A2993 RMK A01
KUCY 042015Z AUTO 25007KT 10SM CLR 15/M02 A2993 RMK A01
KUCY 041955Z AUTO 24006KT 10SM CLR 15/M01 A2993 RMK A01
KUCY 041930Z AUTO 24005G11KT 10SM CLR 14/M01 A2992 RMK A01
KUCY 041915Z AUTO 25006KT 10SM CLR 14/M01 A2992 RMK A01
KUCY 041855Z AUTO VRB05KT 10SM CLR 14/M00 A2993 RMK A01
KUCY 041835Z AUTO 29006KT 10SM CLR 13/M00 A2994 RMK A01
KUCY 041810Z AUTO 26008KT 10SM CLR 13/01 A2994 RMK A01
KUCY 041755Z AUTO 28008KT 10SM CLR 13/01 A2994 RMK A01
KUCY 041730Z AUTO 32005KT 10SM CLR 12/01 A2995 RMK A01
KUCY 041715Z AUTO 31005KT 10SM CLR 12/01 A2995 RMK A01
KUCY 041655Z AUTO 31005KT 10SM CLR 12/02 A2996 RMK A01
KUCY 041635Z AUTO 31005G10KT 10SM CLR 11/01 A2997 RMK A01
KUCY 041615Z AUTO 28007KT 10SM CLR 10/02 A2998 RMK A01
KUCY 041555Z AUTO 28008KT 10SM CLR 09/02 A2998 RMK A01
KUCY 041535Z AUTO 28008KT 10SM CLR 09/03 A2997 RMK A01
KUCY 041510Z AUTO 23005KT 10SM CLR 06/02 A2996 RMK A01
KUCY 041455Z AUTO 23006KT 10SM CLR 06/02 A2996 RMK A01
KUCY 041435Z AUTO 24004KT 10SM CLR 05/02 A2994 RMK A01
KUCY 041415Z AUTO 21004KT 10SM CLR 04/01 A2993 RMK A01
KUCY 041355Z AUTO 21003KT 9SM CLR 02/00 A2992 RMK A01
KUCY 041335Z AUTO 21004KT 8SM CLR 00/M01 A2992 RMK A01
KUCY 041315Z AUTO 21004KT 10SM CLR M00/M02 A2992 RMK A01